Airfield :
LOGIN :

Register | Disclaimer

   EN    FR    IT 

 










Legend :    VFR   Marginal VFR   IFR   Intensive IFR   Very Intensive IFR
Visi :
Ceiling :
>= 8 km
>= 3000ft
5 to 8 km
1000 to 3000 ft
1500m to 5 km
500 to 1000 ft
800 to 1500m
200 to 500 ft
< 800m
< 200 ft
Symbols :   Thunderstorms  Fog  Heavy snow  Heavy precipitations  Wind > 20 kt
SIGMETs :     Misc.  Thunderstorms  Icing  Turbulence  Mountain Waves  Volcanic Ashes







- Airport Elevation : 74 ft
- IATA code : EIN


EHEH - Eindhoven

CURRENT METAR :
  • 141725Z AUTO 27009KT 230V340 9999 OVC052 21/13 Q1016 BLU 28010KT 9999 FEW030 BKN050

EXPIRED METARs :
  • 141655Z AUTO 29009KT 230V360 9999 FEW029 BKN039 BKN046 22/15 Q1016 BLU 28010KT 9999 FEW020 SCT030 BKN045
  • 141625Z AUTO 30006KT 230V360 9999 FEW022 SCT026 BKN029 22/16 Q1016 BLU 28010KT 9999 FEW020 SCT030 BKN045
  • 141605Z AUTO 30008KT 230V360 9999 BKN021 BKN025 OVC031 21/16 Q1016 WHT 28010KT 9999 FEW020 SCT030 BKN045
  • 141555Z AUTO 31009KT 230V020 9999 FEW022 BKN042 OVC047 22/16 Q1016 BLU 28010KT 9999 FEW020 SCT030 BKN045
  • 141532Z AUTO 30008KT 230V360 9999 FEW019 SCT023 BKN039 22/16 Q1016 WHT 28010KT 9999 FEW020 SCT030 BKN045
  • 141525Z AUTO 29008KT 240V360 9999 FEW039 SCT046 BKN067 21/16 Q1016 BLU 28010KT 9999 FEW020 SCT030 BKN045
  • 141513Z AUTO 29010KT 230V330 9999 FEW017 SCT026 BKN032 20/16 Q1016 BLU 28010KT 9999 FEW020 SCT030 BKN045
  • 141504Z AUTO 28009KT 230V350 9999 FEW017 SCT022 BKN025 20/17 Q1016 WHT 28010KT 9999 FEW020 SCT030 BKN045
  • 141502Z AUTO 27007KT 220V350 9999 FEW021 SCT024 BKN066 21/17 Q1016 WHT 28010KT 9999 FEW020 SCT030 BKN045
  • 141455Z AUTO 27006KT 220V350 9999 SCT047 OVC063 21/18 Q1016 REDZ BLU 28010KT 9999 SCT030 BKN045
  • 141445Z AUTO 25005KT 220V290 9999 FEW041 BKN048 OVC057 20/18 Q1016 BLU 28010KT 9999 SCT025 BKN030
  • 141429Z AUTO 27008KT 230V300 9999 +DZ SCT028 BKN031 OVC037 19/17 Q1016 BLU 28010KT 9999 BKN025 BKN030 TEMPO 5000 -SHRA -RA SCT018 BKN020

TAF TAF EHEH
Valid from the 14 at 12:00 until the 15 at 18:00 UTC


141112Z 1412/1518 27011KT 9999 SCT040
BECMG 1419/1422 23005KT
PROB30 1504/1507 5000 BR SCT007
No reported NOTAMs for that airfield.



MET'MAP, your aeronautical weather chart ! - Copyright ORBIFLY December 2007 - Disclaimer

ORBIFLY MET'MAP TEAM :

Programming & Development : Alexandra Zaïnal
Concept & Development : Baudouin d'Aumeries
Co-Development & Prog : Marc-Olivier Méhu
Technical & hardware support : Manuel Goepfert

Contact : metmap@orbifly.com




SOURCES & CREDITS :

   NOAA